sensor_id;sensor_type;location;lat;lon;timestamp;pressure;altitude;pressure_sealevel;temperature
74485;BMP280;62942;52.462;10.846;2023-04-24T00:00:23;99370;;;
74485;BMP280;62942;52.462;10.846;2023-04-24T00:01:23;99370;;;
74485;BMP280;62942;52.462;10.846;2023-04-24T00:02:33;99350;;;
74485;BMP280;62942;52.462;10.846;2023-04-24T00:03:43;99360;;;
74485;BMP280;62942;52.462;10.846;2023-04-24T00:04:43;99360;;;
74485;BMP280;62942;52.462;10.846;2023-04-24T00:05:53;99360;;;
74485;BMP280;62942;52.462;10.846;2023-04-24T00:07:03;99360;;;
74485;BMP280;62942;52.462;10.846;2023-04-24T00:08:03;99360;;;
74485;BMP280;62942;52.462;10.846;2023-04-24T00:09:13;99360;;;
74485;BMP280;62942;52.462;10.846;2023-04-24T00:10:23;99360;;;
74485;BMP280;62942;52.462;10.846;2023-04-24T00:11:23;99360;;;
74485;BMP280;62942;52.462;10.846;2023-04-24T00:12:33;99360;;;
74485;BMP280;62942;52.462;10.846;2023-04-24T00:13:43;99360;;;
74485;BMP280;62942;52.462;10.846;2023-04-24T00:14:43;99350;;;
74485;BMP280;62942;52.462;10.846;2023-04-24T00:15:43;99350;;;
74485;BMP280;62942;52.462;10.846;2023-04-24T00:16:53;99350;;;
74485;BMP280;62942;52.462;10.846;2023-04-24T00:18:03;99360;;;
74485;BMP280;62942;52.462;10.846;2023-04-24T00:19:03;99350;;;
74485;BMP280;62942;52.462;10.846;2023-04-24T00:20:13;99350;;;
74485;BMP280;62942;52.462;10.846;2023-04-24T00:21:23;99340;;;
74485;BMP280;62942;52.462;10.846;2023-04-24T00:22:23;99350;;;
74485;BMP280;62942;52.462;10.846;2023-04-24T00:23:33;99350;;;
74485;BMP280;62942;52.462;10.846;2023-04-24T00:24:33;99330;;;
74485;BMP280;62942;52.462;10.846;2023-04-24T00:25:43;99350;;;
74485;BMP280;62942;52.462;10.846;2023-04-24T00:26:53;99350;;;
74485;BMP280;62942;52.462;10.846;2023-04-24T00:27:53;99340;;;
74485;BMP280;62942;52.462;10.846;2023-04-24T00:29:03;99340;;;
74485;BMP280;62942;52.462;10.846;2023-04-24T00:30:03;99340;;;
74485;BMP280;62942;52.462;10.846;2023-04-24T00:31:13;99340;;;
74485;BMP280;62942;52.462;10.846;2023-04-24T00:32:13;99340;;;
74485;BMP280;62942;52.462;10.846;2023-04-24T00:33:23;99350;;;
74485;BMP280;62942;52.462;10.846;2023-04-24T00:34:23;99340;;;
74485;BMP280;62942;52.462;10.846;2023-04-24T00:35:33;99340;;;
74485;BMP280;62942;52.462;10.846;2023-04-24T00:36:33;99340;;;
74485;BMP280;62942;52.462;10.846;2023-04-24T00:37:43;99340;;;
74485;BMP280;62942;52.462;10.846;2023-04-24T00:38:43;99350;;;
74485;BMP280;62942;52.462;10.846;2023-04-24T00:39:43;99340;;;
74485;BMP280;62942;52.462;10.846;2023-04-24T00:40:53;99340;;;
74485;BMP280;62942;52.462;10.846;2023-04-24T00:42:03;99340;;;
74485;BMP280;62942;52.462;10.846;2023-04-24T00:43:03;99340;;;
74485;BMP280;62942;52.462;10.846;2023-04-24T00:44:13;99330;;;
74485;BMP280;62942;52.462;10.846;2023-04-24T00:45:13;99340;;;
74485;BMP280;62942;52.462;10.846;2023-04-24T00:46:23;99330;;;
74485;BMP280;62942;52.462;10.846;2023-04-24T00:47:33;99330;;;
74485;BMP280;62942;52.462;10.846;2023-04-24T00:48:43;99330;;;
74485;BMP280;62942;52.462;10.846;2023-04-24T00:49:43;99320;;;
74485;BMP280;62942;52.462;10.846;2023-04-24T00:50:53;99340;;;
74485;BMP280;62942;52.462;10.846;2023-04-24T00:52:03;99330;;;
74485;BMP280;62942;52.462;10.846;2023-04-24T00:53:03;99330;;;
74485;BMP280;62942;52.462;10.846;2023-04-24T00:54:13;99330;;;
74485;BMP280;62942;52.462;10.846;2023-04-24T00:55:23;99330;;;
74485;BMP280;62942;52.462;10.846;2023-04-24T00:56:33;99330;;;
74485;BMP280;62942;52.462;10.846;2023-04-24T00:57:43;99330;;;
74485;BMP280;62942;52.462;10.846;2023-04-24T00:58:53;99330;;;
74485;BMP280;62942;52.462;10.846;2023-04-24T00:59:53;99340;;;
74485;BMP280;62942;52.462;10.846;2023-04-24T01:01:03;99340;;;
74485;BMP280;62942;52.462;10.846;2023-04-24T01:02:13;99340;;;
74485;BMP280;62942;52.462;10.846;2023-04-24T01:03:13;99340;;;
74485;BMP280;62942;52.462;10.846;2023-04-24T01:04:13;99340;;;
74485;BMP280;62942;52.462;10.846;2023-04-24T01:05:23;99330;;;
74485;BMP280;62942;52.462;10.846;2023-04-24T01:06:33;99340;;;
74485;BMP280;62942;52.462;10.846;2023-04-24T01:07:43;99340;;;
74485;BMP280;62942;52.462;10.846;2023-04-24T01:08:53;99340;;;
74485;BMP280;62942;52.462;10.846;2023-04-24T01:09:53;99340;;;
74485;BMP280;62942;52.462;10.846;2023-04-24T01:11:03;99340;;;
74485;BMP280;62942;52.462;10.846;2023-04-24T01:12:13;99340;;;
74485;BMP280;62942;52.462;10.846;2023-04-24T01:13:13;99340;;;
74485;BMP280;62942;52.462;10.846;2023-04-24T01:14:23;99340;;;
74485;BMP280;62942;52.462;10.846;2023-04-24T01:15:33;99330;;;
74485;BMP280;62942;52.462;10.846;2023-04-24T01:16:33;99330;;;
74485;BMP280;62942;52.462;10.846;2023-04-24T01:17:43;99330;;;
74485;BMP280;62942;52.462;10.846;2023-04-24T01:18:53;99330;;;
74485;BMP280;62942;52.462;10.846;2023-04-24T01:19:53;99330;;;
74485;BMP280;62942;52.462;10.846;2023-04-24T01:21:03;99330;;;
74485;BMP280;62942;52.462;10.846;2023-04-24T01:22:13;99330;;;
74485;BMP280;62942;52.462;10.846;2023-04-24T01:23:23;99340;;;
74485;BMP280;62942;52.462;10.846;2023-04-24T01:24:23;99340;;;
74485;BMP280;62942;52.462;10.846;2023-04-24T01:25:33;99340;;;
74485;BMP280;62942;52.462;10.846;2023-04-24T01:26:43;99340;;;
74485;BMP280;62942;52.462;10.846;2023-04-24T01:27:43;99340;;;
74485;BMP280;62942;52.462;10.846;2023-04-24T01:28:53;99350;;;
74485;BMP280;62942;52.462;10.846;2023-04-24T01:30:03;99340;;;
74485;BMP280;62942;52.462;10.846;2023-04-24T01:31:03;99340;;;
74485;BMP280;62942;52.462;10.846;2023-04-24T01:32:13;99340;;;
74485;BMP280;62942;52.462;10.846;2023-04-24T01:33:23;99340;;;
74485;BMP280;62942;52.462;10.846;2023-04-24T01:34:33;99340;;;
74485;BMP280;62942;52.462;10.846;2023-04-24T01:35:33;99350;;;
74485;BMP280;62942;52.462;10.846;2023-04-24T01:36:43;99340;;;
74485;BMP280;62942;52.462;10.846;2023-04-24T01:37:53;99340;;;
74485;BMP280;62942;52.462;10.846;2023-04-24T01:39:03;99340;;;
74485;BMP280;62942;52.462;10.846;2023-04-24T01:40:13;99340;;;
74485;BMP280;62942;52.462;10.846;2023-04-24T01:41:23;99340;;;
74485;BMP280;62942;52.462;10.846;2023-04-24T01:42:23;99340;;;
74485;BMP280;62942;52.462;10.846;2023-04-24T01:43:23;99340;;;
74485;BMP280;62942;52.462;10.846;2023-04-24T01:44:33;99330;;;
74485;BMP280;62942;52.462;10.846;2023-04-24T01:45:43;99330;;;
74485;BMP280;62942;52.462;10.846;2023-04-24T01:46:53;99330;;;
74485;BMP280;62942;52.462;10.846;2023-04-24T01:47:53;99330;;;
74485;BMP280;62942;52.462;10.846;2023-04-24T01:49:04;99330;;;
74485;BMP280;62942;52.462;10.846;2023-04-24T01:50:13;99330;;;
74485;BMP280;62942;52.462;10.846;2023-04-24T01:51:23;99330;;;
74485;BMP280;62942;52.462;10.846;2023-04-24T01:52:23;99330;;;
74485;BMP280;62942;52.462;10.846;2023-04-24T01:53:23;99330;;;
74485;BMP280;62942;52.462;10.846;2023-04-24T01:54:33;99330;;;
74485;BMP280;62942;52.462;10.846;2023-04-24T01:55:33;99320;;;
74485;BMP280;62942;52.462;10.846;2023-04-24T01:56:43;99330;;;
74485;BMP280;62942;52.462;10.846;2023-04-24T01:57:43;99330;;;
74485;BMP280;62942;52.462;10.846;2023-04-24T01:58:43;99330;;;
74485;BMP280;62942;52.462;10.846;2023-04-24T01:59:53;99320;;;
74485;BMP280;62942;52.462;10.846;2023-04-24T02:00:53;99330;;;
74485;BMP280;62942;52.462;10.846;2023-04-24T02:02:03;99320;;;
74485;BMP280;62942;52.462;10.846;2023-04-24T02:03:03;99320;;;
74485;BMP280;62942;52.462;10.846;2023-04-24T02:04:13;99320;;;
74485;BMP280;62942;52.462;10.846;2023-04-24T02:05:23;99320;;;
74485;BMP280;62942;52.462;10.846;2023-04-24T02:06:33;99320;;;
74485;BMP280;62942;52.462;10.846;2023-04-24T02:07:43;99320;;;
74485;BMP280;62942;52.462;10.846;2023-04-24T02:08:53;99310;;;
74485;BMP280;62942;52.462;10.846;2023-04-24T02:10:03;99320;;;
74485;BMP280;62942;52.462;10.846;2023-04-24T02:11:03;99320;;;
74485;BMP280;62942;52.462;10.846;2023-04-24T02:12:13;99320;;;
74485;BMP280;62942;52.462;10.846;2023-04-24T02:13:22;99320;;;
74485;BMP280;62942;52.462;10.846;2023-04-24T02:14:33;99320;;;
74485;BMP280;62942;52.462;10.846;2023-04-24T02:15:43;99320;;;
74485;BMP280;62942;52.462;10.846;2023-04-24T02:16:53;99330;;;
74485;BMP280;62942;52.462;10.846;2023-04-24T02:18:03;99320;;;
74485;BMP280;62942;52.462;10.846;2023-04-24T02:19:03;99320;;;
74485;BMP280;62942;52.462;10.846;2023-04-24T02:20:12;99320;;;
74485;BMP280;62942;52.462;10.846;2023-04-24T02:21:13;99330;;;
74485;BMP280;62942;52.462;10.846;2023-04-24T02:22:23;99330;;;
74485;BMP280;62942;52.462;10.846;2023-04-24T02:23:32;99330;;;
74485;BMP280;62942;52.462;10.846;2023-04-24T02:24:33;99330;;;
74485;BMP280;62942;52.462;10.846;2023-04-24T02:25:42;99330;;;
74485;BMP280;62942;52.462;10.846;2023-04-24T02:26:42;99340;;;
74485;BMP280;62942;52.462;10.846;2023-04-24T02:27:42;99340;;;
74485;BMP280;62942;52.462;10.846;2023-04-24T02:28:53;99340;;;
74485;BMP280;62942;52.462;10.846;2023-04-24T02:30:03;99340;;;
74485;BMP280;62942;52.462;10.846;2023-04-24T02:31:03;99330;;;
74485;BMP280;62942;52.462;10.846;2023-04-24T02:32:13;99330;;;
74485;BMP280;62942;52.462;10.846;2023-04-24T02:33:12;99340;;;
74485;BMP280;62942;52.462;10.846;2023-04-24T02:34:22;99340;;;
74485;BMP280;62942;52.462;10.846;2023-04-24T02:35:22;99330;;;
74485;BMP280;62942;52.462;10.846;2023-04-24T02:36:32;99330;;;
74485;BMP280;62942;52.462;10.846;2023-04-24T02:37:42;99330;;;
74485;BMP280;62942;52.462;10.846;2023-04-24T02:38:52;99330;;;
74485;BMP280;62942;52.462;10.846;2023-04-24T02:40:03;99330;;;
74485;BMP280;62942;52.462;10.846;2023-04-24T02:41:12;99330;;;
74485;BMP280;62942;52.462;10.846;2023-04-24T02:42:22;99340;;;
74485;BMP280;62942;52.462;10.846;2023-04-24T02:43:32;99330;;;
74485;BMP280;62942;52.462;10.846;2023-04-24T02:44:42;99330;;;
74485;BMP280;62942;52.462;10.846;2023-04-24T02:45:52;99330;;;
74485;BMP280;62942;52.462;10.846;2023-04-24T02:47:03;99330;;;
74485;BMP280;62942;52.462;10.846;2023-04-24T02:48:12;99330;;;
74485;BMP280;62942;52.462;10.846;2023-04-24T02:49:22;99330;;;
74485;BMP280;62942;52.462;10.846;2023-04-24T02:50:32;99320;;;
74485;BMP280;62942;52.462;10.846;2023-04-24T02:51:43;99320;;;
74485;BMP280;62942;52.462;10.846;2023-04-24T02:52:52;99330;;;
74485;BMP280;62942;52.462;10.846;2023-04-24T02:54:03;99320;;;
74485;BMP280;62942;52.462;10.846;2023-04-24T02:55:13;99320;;;
74485;BMP280;62942;52.462;10.846;2023-04-24T02:56:22;99320;;;
74485;BMP280;62942;52.462;10.846;2023-04-24T02:57:22;99320;;;
74485;BMP280;62942;52.462;10.846;2023-04-24T02:58:32;99320;;;
74485;BMP280;62942;52.462;10.846;2023-04-24T02:59:32;99320;;;
74485;BMP280;62942;52.462;10.846;2023-04-24T03:00:42;99320;;;
74485;BMP280;62942;52.462;10.846;2023-04-24T03:01:42;99320;;;
74485;BMP280;62942;52.462;10.846;2023-04-24T03:02:52;99320;;;
74485;BMP280;62942;52.462;10.846;2023-04-24T03:03:52;99330;;;
74485;BMP280;62942;52.462;10.846;2023-04-24T03:05:03;99320;;;
74485;BMP280;62942;52.462;10.846;2023-04-24T03:06:03;99320;;;
74485;BMP280;62942;52.462;10.846;2023-04-24T03:07:12;99320;;;
74485;BMP280;62942;52.462;10.846;2023-04-24T03:08:22;99320;;;
74485;BMP280;62942;52.462;10.846;2023-04-24T03:09:23;99320;;;
74485;BMP280;62942;52.462;10.846;2023-04-24T03:10:32;99320;;;
74485;BMP280;62942;52.462;10.846;2023-04-24T03:11:32;99320;;;
74485;BMP280;62942;52.462;10.846;2023-04-24T03:12:42;99330;;;
74485;BMP280;62942;52.462;10.846;2023-04-24T03:13:52;99330;;;
74485;BMP280;62942;52.462;10.846;2023-04-24T03:15:03;99330;;;
74485;BMP280;62942;52.462;10.846;2023-04-24T03:16:12;99330;;;
74485;BMP280;62942;52.462;10.846;2023-04-24T03:17:22;99330;;;
74485;BMP280;62942;52.462;10.846;2023-04-24T03:18:22;99330;;;
74485;BMP280;62942;52.462;10.846;2023-04-24T03:19:32;99330;;;
74485;BMP280;62942;52.462;10.846;2023-04-24T03:20:44;99340;;;
74485;BMP280;62942;52.462;10.846;2023-04-24T03:21:52;99330;;;
74485;BMP280;62942;52.462;10.846;2023-04-24T03:23:02;99330;;;
74485;BMP280;62942;52.462;10.846;2023-04-24T03:24:02;99330;;;
74485;BMP280;62942;52.462;10.846;2023-04-24T03:25:12;99330;;;
74485;BMP280;62942;52.462;10.846;2023-04-24T03:26:22;99330;;;
74485;BMP280;62942;52.462;10.846;2023-04-24T03:27:22;99330;;;
74485;BMP280;62942;52.462;10.846;2023-04-24T03:28:32;99330;;;
74485;BMP280;62942;52.462;10.846;2023-04-24T03:29:42;99330;;;
74485;BMP280;62942;52.462;10.846;2023-04-24T03:30:42;99330;;;
74485;BMP280;62942;52.462;10.846;2023-04-24T03:31:52;99330;;;
74485;BMP280;62942;52.462;10.846;2023-04-24T03:32:52;99320;;;
74485;BMP280;62942;52.462;10.846;2023-04-24T03:34:02;99320;;;
74485;BMP280;62942;52.462;10.846;2023-04-24T03:35:12;99310;;;
74485;BMP280;62942;52.462;10.846;2023-04-24T03:36:22;99310;;;
74485;BMP280;62942;52.462;10.846;2023-04-24T03:37:22;99310;;;
74485;BMP280;62942;52.462;10.846;2023-04-24T03:38:22;99320;;;
74485;BMP280;62942;52.462;10.846;2023-04-24T03:39:32;99320;;;
74485;BMP280;62942;52.462;10.846;2023-04-24T03:40:42;99310;;;
74485;BMP280;62942;52.462;10.846;2023-04-24T03:41:52;99320;;;
74485;BMP280;62942;52.462;10.846;2023-04-24T03:42:52;99320;;;
74485;BMP280;62942;52.462;10.846;2023-04-24T03:44:02;99320;;;
74485;BMP280;62942;52.462;10.846;2023-04-24T03:45:02;99320;;;
74485;BMP280;62942;52.462;10.846;2023-04-24T03:46:12;99320;;;
74485;BMP280;62942;52.462;10.846;2023-04-24T03:47:12;99310;;;
74485;BMP280;62942;52.462;10.846;2023-04-24T03:48:12;99300;;;
74485;BMP280;62942;52.462;10.846;2023-04-24T03:49:22;99300;;;
74485;BMP280;62942;52.462;10.846;2023-04-24T03:50:32;99310;;;
74485;BMP280;62942;52.462;10.846;2023-04-24T03:51:42;99310;;;
74485;BMP280;62942;52.462;10.846;2023-04-24T03:52:42;99300;;;
74485;BMP280;62942;52.462;10.846;2023-04-24T03:53:52;99300;;;
74485;BMP280;62942;52.462;10.846;2023-04-24T03:54:52;99300;;;
74485;BMP280;62942;52.462;10.846;2023-04-24T03:56:02;99310;;;
74485;BMP280;62942;52.462;10.846;2023-04-24T03:57:02;99300;;;
74485;BMP280;62942;52.462;10.846;2023-04-24T03:58:02;99310;;;
74485;BMP280;62942;52.462;10.846;2023-04-24T03:59:12;99290;;;
74485;BMP280;62942;52.462;10.846;2023-04-24T04:00:13;99300;;;
74485;BMP280;62942;52.462;10.846;2023-04-24T04:01:22;99310;;;
74485;BMP280;62942;52.462;10.846;2023-04-24T04:02:22;99310;;;
74485;BMP280;62942;52.462;10.846;2023-04-24T04:03:32;99310;;;
74485;BMP280;62942;52.462;10.846;2023-04-24T04:04:32;99310;;;
74485;BMP280;62942;52.462;10.846;2023-04-24T04:05:32;99310;;;
74485;BMP280;62942;52.462;10.846;2023-04-24T04:06:42;99310;;;
74485;BMP280;62942;52.462;10.846;2023-04-24T04:07:42;99310;;;
74485;BMP280;62942;52.462;10.846;2023-04-24T04:08:42;99310;;;
74485;BMP280;62942;52.462;10.846;2023-04-24T04:09:52;99320;;;
74485;BMP280;62942;52.462;10.846;2023-04-24T04:11:02;99320;;;
74485;BMP280;62942;52.462;10.846;2023-04-24T04:12:02;99320;;;
74485;BMP280;62942;52.462;10.846;2023-04-24T04:13:02;99320;;;
74485;BMP280;62942;52.462;10.846;2023-04-24T04:14:12;99320;;;
74485;BMP280;62942;52.462;10.846;2023-04-24T04:15:12;99320;;;
74485;BMP280;62942;52.462;10.846;2023-04-24T04:16:22;99320;;;
74485;BMP280;62942;52.462;10.846;2023-04-24T04:17:22;99320;;;
74485;BMP280;62942;52.462;10.846;2023-04-24T04:18:32;99320;;;
74485;BMP280;62942;52.462;10.846;2023-04-24T04:19:32;99320;;;
74485;BMP280;62942;52.462;10.846;2023-04-24T04:20:42;99320;;;
74485;BMP280;62942;52.462;10.846;2023-04-24T04:21:42;99320;;;
74485;BMP280;62942;52.462;10.846;2023-04-24T04:22:52;99320;;;
74485;BMP280;62942;52.462;10.846;2023-04-24T04:23:52;99320;;;
74485;BMP280;62942;52.462;10.846;2023-04-24T04:25:02;99320;;;
74485;BMP280;62942;52.462;10.846;2023-04-24T04:26:03;99320;;;
74485;BMP280;62942;52.462;10.846;2023-04-24T04:27:12;99320;;;
74485;BMP280;62942;52.462;10.846;2023-04-24T04:28:12;99320;;;
74485;BMP280;62942;52.462;10.846;2023-04-24T04:29:22;99320;;;
74485;BMP280;62942;52.462;10.846;2023-04-24T04:30:32;99320;;;
74485;BMP280;62942;52.462;10.846;2023-04-24T04:31:32;99320;;;
74485;BMP280;62942;52.462;10.846;2023-04-24T04:32:42;99320;;;
74485;BMP280;62942;52.462;10.846;2023-04-24T04:33:52;99330;;;
74485;BMP280;62942;52.462;10.846;2023-04-24T04:34:52;99320;;;
74485;BMP280;62942;52.462;10.846;2023-04-24T04:36:02;99320;;;
74485;BMP280;62942;52.462;10.846;2023-04-24T04:37:12;99320;;;
74485;BMP280;62942;52.462;10.846;2023-04-24T04:38:12;99320;;;
74485;BMP280;62942;52.462;10.846;2023-04-24T04:39:22;99320;;;
74485;BMP280;62942;52.462;10.846;2023-04-24T04:40:32;99330;;;
74485;BMP280;62942;52.462;10.846;2023-04-24T04:41:42;99320;;;
74485;BMP280;62942;52.462;10.846;2023-04-24T04:42:42;99330;;;
74485;BMP280;62942;52.462;10.846;2023-04-24T04:43:52;99330;;;
74485;BMP280;62942;52.462;10.846;2023-04-24T04:44:52;99330;;;
74485;BMP280;62942;52.462;10.846;2023-04-24T04:46:02;99330;;;
74485;BMP280;62942;52.462;10.846;2023-04-24T04:47:12;99330;;;
74485;BMP280;62942;52.462;10.846;2023-04-24T04:48:12;99330;;;
74485;BMP280;62942;52.462;10.846;2023-04-24T04:49:22;99330;;;
74485;BMP280;62942;52.462;10.846;2023-04-24T04:50:22;99330;;;
74485;BMP280;62942;52.462;10.846;2023-04-24T04:51:32;99330;;;
74485;BMP280;62942;52.462;10.846;2023-04-24T04:52:42;99330;;;
74485;BMP280;62942;52.462;10.846;2023-04-24T04:53:42;99330;;;
74485;BMP280;62942;52.462;10.846;2023-04-24T04:54:52;99340;;;
74485;BMP280;62942;52.462;10.846;2023-04-24T04:56:02;99330;;;
74485;BMP280;62942;52.462;10.846;2023-04-24T04:57:12;99340;;;
74485;BMP280;62942;52.462;10.846;2023-04-24T04:58:12;99330;;;
74485;BMP280;62942;52.462;10.846;2023-04-24T04:59:22;99340;;;
74485;BMP280;62942;52.462;10.846;2023-04-24T05:00:32;99320;;;
74485;BMP280;62942;52.462;10.846;2023-04-24T05:01:42;99330;;;
74485;BMP280;62942;52.462;10.846;2023-04-24T05:02:42;99330;;;
74485;BMP280;62942;52.462;10.846;2023-04-24T05:03:52;99340;;;
74485;BMP280;62942;52.462;10.846;2023-04-24T05:05:02;99340;;;
74485;BMP280;62942;52.462;10.846;2023-04-24T05:06:02;99340;;;
74485;BMP280;62942;52.462;10.846;2023-04-24T05:07:12;99340;;;
74485;BMP280;62942;52.462;10.846;2023-04-24T05:08:12;99340;;;
74485;BMP280;62942;52.462;10.846;2023-04-24T05:09:22;99340;;;
74485;BMP280;62942;52.462;10.846;2023-04-24T05:10:22;99340;;;
74485;BMP280;62942;52.462;10.846;2023-04-24T05:11:32;99330;;;
74485;BMP280;62942;52.462;10.846;2023-04-24T05:12:32;99320;;;
74485;BMP280;62942;52.462;10.846;2023-04-24T05:13:42;99320;;;
74485;BMP280;62942;52.462;10.846;2023-04-24T05:14:42;99330;;;
74485;BMP280;62942;52.462;10.846;2023-04-24T05:15:42;99340;;;
74485;BMP280;62942;52.462;10.846;2023-04-24T05:16:52;99350;;;
74485;BMP280;62942;52.462;10.846;2023-04-24T05:17:52;99350;;;
74485;BMP280;62942;52.462;10.846;2023-04-24T05:19:02;99350;;;
74485;BMP280;62942;52.462;10.846;2023-04-24T05:20:03;99340;;;
74485;BMP280;62942;52.462;10.846;2023-04-24T05:21:12;99350;;;
74485;BMP280;62942;52.462;10.846;2023-04-24T05:22:12;99350;;;
74485;BMP280;62942;52.462;10.846;2023-04-24T05:23:22;99340;;;
74485;BMP280;62942;52.462;10.846;2023-04-24T05:24:32;99340;;;
74485;BMP280;62942;52.462;10.846;2023-04-24T05:25:42;99340;;;
74485;BMP280;62942;52.462;10.846;2023-04-24T05:26:42;99350;;;
74485;BMP280;62942;52.462;10.846;2023-04-24T05:27:52;99340;;;
74485;BMP280;62942;52.462;10.846;2023-04-24T05:29:02;99340;;;
74485;BMP280;62942;52.462;10.846;2023-04-24T05:30:12;99340;;;
74485;BMP280;62942;52.462;10.846;2023-04-24T05:31:12;99340;;;
74485;BMP280;62942;52.462;10.846;2023-04-24T05:32:22;99340;;;
74485;BMP280;62942;52.462;10.846;2023-04-24T05:33:32;99340;;;
74485;BMP280;62942;52.462;10.846;2023-04-24T05:34:42;99340;;;
74485;BMP280;62942;52.462;10.846;2023-04-24T05:35:52;99340;;;
74485;BMP280;62942;52.462;10.846;2023-04-24T05:36:52;99330;;;
74485;BMP280;62942;52.462;10.846;2023-04-24T05:38:02;99340;;;
74485;BMP280;62942;52.462;10.846;2023-04-24T05:39:12;99330;;;
74485;BMP280;62942;52.462;10.846;2023-04-24T05:40:22;99330;;;
74485;BMP280;62942;52.462;10.846;2023-04-24T05:41:32;99340;;;
74485;BMP280;62942;52.462;10.846;2023-04-24T05:42:42;99340;;;
74485;BMP280;62942;52.462;10.846;2023-04-24T05:43:52;99340;;;
74485;BMP280;62942;52.462;10.846;2023-04-24T05:45:02;99340;;;
74485;BMP280;62942;52.462;10.846;2023-04-24T05:46:12;99340;;;
74485;BMP280;62942;52.462;10.846;2023-04-24T05:47:12;99340;;;
74485;BMP280;62942;52.462;10.846;2023-04-24T05:48:12;99330;;;
74485;BMP280;62942;52.462;10.846;2023-04-24T05:49:22;99340;;;
74485;BMP280;62942;52.462;10.846;2023-04-24T05:50:22;99340;;;
74485;BMP280;62942;52.462;10.846;2023-04-24T05:51:32;99340;;;
74485;BMP280;62942;52.462;10.846;2023-04-24T05:52:42;99340;;;
74485;BMP280;62942;52.462;10.846;2023-04-24T05:53:52;99340;;;
74485;BMP280;62942;52.462;10.846;2023-04-24T05:54:52;99340;;;
74485;BMP280;62942;52.462;10.846;2023-04-24T05:56:02;99350;;;
74485;BMP280;62942;52.462;10.846;2023-04-24T05:57:12;99350;;;
74485;BMP280;62942;52.462;10.846;2023-04-24T05:58:22;99350;;;
74485;BMP280;62942;52.462;10.846;2023-04-24T05:59:22;99340;;;
74485;BMP280;62942;52.462;10.846;2023-04-24T06:00:32;99350;;;
74485;BMP280;62942;52.462;10.846;2023-04-24T06:01:42;99340;;;
74485;BMP280;62942;52.462;10.846;2023-04-24T06:02:52;99340;;;
74485;BMP280;62942;52.462;10.846;2023-04-24T06:03:52;99340;;;
74485;BMP280;62942;52.462;10.846;2023-04-24T06:05:02;99340;;;
74485;BMP280;62942;52.462;10.846;2023-04-24T06:06:12;99330;;;
74485;BMP280;62942;52.462;10.846;2023-04-24T06:07:12;99340;;;
74485;BMP280;62942;52.462;10.846;2023-04-24T06:08:22;99340;;;
74485;BMP280;62942;52.462;10.846;2023-04-24T06:09:32;99340;;;
74485;BMP280;62942;52.462;10.846;2023-04-24T06:10:32;99340;;;
74485;BMP280;62942;52.462;10.846;2023-04-24T06:11:42;99340;;;
74485;BMP280;62942;52.462;10.846;2023-04-24T06:12:42;99340;;;
74485;BMP280;62942;52.462;10.846;2023-04-24T06:13:52;99350;;;
74485;BMP280;62942;52.462;10.846;2023-04-24T06:15:02;99350;;;
74485;BMP280;62942;52.462;10.846;2023-04-24T06:16:12;99350;;;
74485;BMP280;62942;52.462;10.846;2023-04-24T06:17:12;99350;;;
74485;BMP280;62942;52.462;10.846;2023-04-24T06:18:22;99350;;;
74485;BMP280;62942;52.462;10.846;2023-04-24T06:19:22;99350;;;
74485;BMP280;62942;52.462;10.846;2023-04-24T06:20:32;99350;;;
74485;BMP280;62942;52.462;10.846;2023-04-24T06:21:42;99350;;;
74485;BMP280;62942;52.462;10.846;2023-04-24T06:22:52;99350;;;
74485;BMP280;62942;52.462;10.846;2023-04-24T06:24:02;99350;;;
74485;BMP280;62942;52.462;10.846;2023-04-24T06:25:12;99340;;;
74485;BMP280;62942;52.462;10.846;2023-04-24T06:26:22;99350;;;
74485;BMP280;62942;52.462;10.846;2023-04-24T06:27:32;99350;;;
74485;BMP280;62942;52.462;10.846;2023-04-24T06:28:42;99340;;;
74485;BMP280;62942;52.462;10.846;2023-04-24T06:29:42;99350;;;
74485;BMP280;62942;52.462;10.846;2023-04-24T06:30:52;99360;;;
74485;BMP280;62942;52.462;10.846;2023-04-24T06:31:52;99360;;;
74485;BMP280;62942;52.462;10.846;2023-04-24T06:32:52;99350;;;
74485;BMP280;62942;52.462;10.846;2023-04-24T06:34:02;99350;;;
74485;BMP280;62942;52.462;10.846;2023-04-24T06:35:12;99350;;;
74485;BMP280;62942;52.462;10.846;2023-04-24T06:36:22;99350;;;
74485;BMP280;62942;52.462;10.846;2023-04-24T06:37:32;99350;;;
74485;BMP280;62942;52.462;10.846;2023-04-24T06:38:42;99350;;;
74485;BMP280;62942;52.462;10.846;2023-04-24T06:39:52;99340;;;
74485;BMP280;62942;52.462;10.846;2023-04-24T06:41:02;99340;;;
74485;BMP280;62942;52.462;10.846;2023-04-24T06:42:12;99340;;;
74485;BMP280;62942;52.462;10.846;2023-04-24T06:43:22;99340;;;
74485;BMP280;62942;52.462;10.846;2023-04-24T06:44:32;99340;;;
74485;BMP280;62942;52.462;10.846;2023-04-24T06:45:32;99340;;;
74485;BMP280;62942;52.462;10.846;2023-04-24T06:46:42;99330;;;
74485;BMP280;62942;52.462;10.846;2023-04-24T06:47:52;99330;;;
74485;BMP280;62942;52.462;10.846;2023-04-24T06:48:52;99330;;;
74485;BMP280;62942;52.462;10.846;2023-04-24T06:49:52;99340;;;
74485;BMP280;62942;52.462;10.846;2023-04-24T06:51:02;99340;;;
74485;BMP280;62942;52.462;10.846;2023-04-24T06:52:12;99340;;;
74485;BMP280;62942;52.462;10.846;2023-04-24T06:53:22;99340;;;
74485;BMP280;62942;52.462;10.846;2023-04-24T06:54:22;99340;;;
74485;BMP280;62942;52.462;10.846;2023-04-24T06:55:32;99340;;;
74485;BMP280;62942;52.462;10.846;2023-04-24T06:56:32;99350;;;
74485;BMP280;62942;52.462;10.846;2023-04-24T06:57:42;99340;;;
74485;BMP280;62942;52.462;10.846;2023-04-24T06:58:42;99350;;;
74485;BMP280;62942;52.462;10.846;2023-04-24T06:59:52;99340;;;
74485;BMP280;62942;52.462;10.846;2023-04-24T07:00:52;99340;;;
74485;BMP280;62942;52.462;10.846;2023-04-24T07:01:52;99340;;;
74485;BMP280;62942;52.462;10.846;2023-04-24T07:03:02;99340;;;
74485;BMP280;62942;52.462;10.846;2023-04-24T07:04:02;99340;;;
74485;BMP280;62942;52.462;10.846;2023-04-24T07:05:12;99340;;;
74485;BMP280;62942;52.462;10.846;2023-04-24T07:06:22;99340;;;